Overview Statistics Trail Chart Weather Telemetry Raw packets
 

This is the latest recevied weather packets stored in our database for station/object IU3OVK-13. If no packets are shown the sender has not sent any weather packets the latest 10 day(s).

<< 26 27 28 29 30 31 32 >>
Time Temp. Humidity Pressure Rain* Wind** Luminosity Snow
1788088214 34.44° C 83% 1007.4 hPa - - - -
1788087592 40° C 71% 1002.8 hPa - - - -
1788086971 42.22° C 69% 991.2 hPa - - - -
1788086351 42.22° C 69% 991.3 hPa - - - -
1788085115 38.33° C 78% 1010.5 hPa - - - -
1788083867 45° C 71% 993 hPa - - - -
1788082626 43.33° C 74% 993.4 hPa - - - -
1788082006 40.56° C 78% 1001.9 hPa - - - -
1788080829 42.78° C 78% 998.4 hPa - - - -
1788080766 42.78° C 78% 998.4 hPa - - - -
1788079525 39.44° C 86% 1008.6 hPa - - - -
1788078905 41.11° C 84% 1000.5 hPa - - - -
1788078285 39.44° C 88% 1004.6 hPa - - - -
1788077045 41.67° C 89% 1001.2 hPa - - - -
1788076424 38.33° C 95% 1006.4 hPa - - - -
1788075804 38.89° C 97% 1004.8 hPa - - - -
1788075184 36.11° C 99% 1008.7 hPa - - - -
1788074564 35.56° C 99% 1008.9 hPa - - - -
1788073944 34.44° C 99% 1009.2 hPa - - - -
1788073323 33.33° C 99% 1010.3 hPa - - - -
1788072083 30.56° C 99% 1009.5 hPa - - - -
1788071463 30.56° C 99% 1009.7 hPa - - - -
1788070843 30° C 99% 1009.5 hPa - - - -
1788070222 30° C 99% 1009.5 hPa - - - -
1788069600 21.67° C 99% 1009.7 hPa - - - -

* Rain since midnight (hover to see other rain measurements)
** Current wind speed in m/s (hover to see current wind gust speed)